createdAt,value
2023-04-07T00:01:07.712Z,100314.53
2023-04-07T00:06:10.508Z,100323.63
2023-04-07T00:11:14.788Z,100315.97
2023-04-07T00:16:17.731Z,100319.06
2023-04-07T00:21:20.664Z,100319.63
2023-04-07T00:26:25.520Z,100311.72
2023-04-07T00:31:28.485Z,100312.59
2023-04-07T00:36:31.711Z,100312.81
2023-04-07T00:41:36.918Z,100302.84
2023-04-07T00:46:40.878Z,100297.81
2023-04-07T00:51:44.051Z,100305.09
2023-04-07T00:56:48.753Z,100303.69
2023-04-07T01:01:58.927Z,100286.66
2023-04-07T01:07:06.933Z,100283.44
2023-04-07T01:12:29.003Z,100283.81
2023-04-07T01:17:35.955Z,100288.63
2023-04-07T01:22:44.009Z,100285.63
2023-04-07T01:28:09.925Z,100269.28
2023-04-07T01:33:16.672Z,100279.97
2023-04-07T01:38:20.819Z,100274.94
2023-04-07T01:43:25.387Z,100281.88
2023-04-07T01:48:30.330Z,100274.25
2023-04-07T01:53:34.225Z,100285.41
2023-04-07T01:58:37.153Z,100279.22
2023-04-07T02:03:50.734Z,100276.44
2023-04-07T02:08:58.191Z,100275.78
2023-04-07T02:14:02.787Z,100275.50
2023-04-07T02:19:11.243Z,100272.78
2023-04-07T02:24:14.127Z,100256.97
2023-04-07T02:29:17.031Z,100262.97
2023-04-07T02:34:21.257Z,100268.44
2023-04-07T02:39:24.347Z,100268.31
2023-04-07T02:44:27.110Z,100274.47
2023-04-07T02:49:31.287Z,100268.38
2023-04-07T02:54:35.420Z,100268.84
2023-04-07T02:59:38.924Z,100265.44
2023-04-07T03:04:44.246Z,100266.97
2023-04-07T03:09:47.109Z,100271.81
2023-04-07T03:14:53.247Z,100267.97
2023-04-07T03:19:59.466Z,100267.19
2023-04-07T03:25:03.393Z,100278.13
2023-04-07T03:30:07.531Z,100271.38
2023-04-07T03:35:13.006Z,100268.66
2023-04-07T03:40:16.167Z,100259.38
2023-04-07T03:45:19.344Z,100264.03
2023-04-07T03:50:26.404Z,100271.09
2023-04-07T03:55:39.161Z,100274.91
2023-04-07T04:00:53.744Z,100270.34
2023-04-07T04:05:58.034Z,100270.19
2023-04-07T04:11:04.890Z,100276.41
2023-04-07T04:16:15.250Z,100277.84
2023-04-07T04:21:20.772Z,100282.19
2023-04-07T04:26:26.064Z,100285.69
2023-04-07T04:31:32.607Z,100281.06
2023-04-07T04:36:38.438Z,100284.72
2023-04-07T04:41:42.456Z,100284.72
2023-04-07T04:46:49.790Z,100294.53
2023-04-07T04:51:54.085Z,100300.50
2023-04-07T04:56:57.601Z,100300.25
2023-04-07T05:02:01.031Z,100305.19
2023-04-07T05:07:05.692Z,100301.00
2023-04-07T05:12:08.878Z,100305.28
2023-04-07T05:17:18.069Z,100316.81
2023-04-07T05:22:22.588Z,100318.41
2023-04-07T05:27:27.347Z,100315.63
2023-04-07T05:32:34.925Z,100319.50
2023-04-07T05:37:45.578Z,100320.97
2023-04-07T05:42:48.461Z,100321.66
2023-04-07T05:47:52.039Z,100319.91
2023-04-07T05:53:03.374Z,100329.84
2023-04-07T05:58:07.424Z,100327.09
2023-04-07T06:03:11.646Z,100329.13
2023-04-07T06:08:29.254Z,100334.97
2023-04-07T06:13:32.590Z,100346.91
2023-04-07T06:18:35.523Z,100343.69
2023-04-07T06:23:40.005Z,100355.44
2023-04-07T06:28:43.171Z,100351.25
2023-04-07T06:33:46.233Z,100352.16
2023-04-07T06:38:51.004Z,100362.53
2023-04-07T06:43:53.875Z,100368.72
2023-04-07T06:48:56.684Z,100369.28
2023-04-07T06:54:00.839Z,100374.41
2023-04-07T06:59:03.645Z,100374.88
2023-04-07T07:04:07.115Z,100375.09
2023-04-07T07:09:11.347Z,100379.06
2023-04-07T07:14:14.374Z,100376.63
2023-04-07T07:19:17.232Z,100392.78
2023-04-07T07:24:21.420Z,100403.81
2023-04-07T07:29:24.311Z,100399.88
2023-04-07T07:34:52.421Z,100405.09
2023-04-07T07:39:56.500Z,100407.28
2023-04-07T07:44:59.318Z,100408.06
2023-04-07T07:50:01.984Z,100418.88
2023-04-07T07:55:07.787Z,100424.78
2023-04-07T08:00:11.997Z,100417.22
2023-04-07T08:05:17.271Z,100431.25
2023-04-07T08:15:52.188Z,100437.09
2023-04-07T08:27:56.066Z,100446.47
2023-04-07T08:33:00.308Z,100446.41
2023-04-07T08:38:04.016Z,100451.19
2023-04-07T08:43:10.619Z,100452.25
2023-04-07T08:48:18.772Z,100460.19
2023-04-07T08:53:29.440Z,100452.03
2023-04-07T08:58:32.348Z,100455.31
2023-04-07T09:03:37.182Z,100462.78
2023-04-07T09:08:40.170Z,100460.81
2023-04-07T09:13:43.043Z,100451.34
2023-04-07T09:18:47.137Z,100463.13
2023-04-07T09:23:50.965Z,100466.50
2023-04-07T09:28:55.722Z,100469.34
2023-04-07T09:33:59.956Z,100461.34
2023-04-07T09:39:09.688Z,100460.97
2023-04-07T09:44:12.585Z,100467.63
2023-04-07T09:49:16.718Z,100467.25
2023-04-07T09:54:33.588Z,100474.22
2023-04-07T09:59:38.159Z,100470.78
2023-04-07T10:04:42.415Z,100474.75
2023-04-07T10:09:45.109Z,100467.28
2023-04-07T10:14:48.549Z,100464.22
2023-04-07T10:19:53.109Z,100472.91
2023-04-07T10:25:00.126Z,100475.28
2023-04-07T10:30:07.215Z,100471.97
2023-04-07T10:35:11.624Z,100481.94
2023-04-07T10:40:31.277Z,100472.25
2023-04-07T10:45:56.471Z,100481.56
2023-04-07T10:51:30.610Z,100490.16
2023-04-07T10:57:10.102Z,100478.47
2023-04-07T11:02:35.256Z,100490.03
2023-04-07T11:07:47.441Z,100477.09
2023-04-07T11:13:01.727Z,100482.25
2023-04-07T11:18:11.725Z,100482.47
2023-04-07T11:23:18.563Z,100491.09
2023-04-07T11:28:21.344Z,100487.66
2023-04-07T11:33:27.132Z,100490.03
2023-04-07T11:38:36.819Z,100482.88
2023-04-07T11:43:41.904Z,100485.75
2023-04-07T11:48:47.212Z,100481.31
2023-04-07T11:53:56.394Z,100496.22
2023-04-07T11:58:59.193Z,100497.34
2023-04-07T12:04:04.312Z,100494.59
2023-04-07T12:09:09.813Z,100488.06
2023-04-07T12:14:12.619Z,100503.25
2023-04-07T12:19:15.420Z,100496.94
2023-04-07T12:24:19.526Z,100493.44
2023-04-07T12:29:22.319Z,100501.50
2023-04-07T12:34:25.071Z,100506.34
2023-04-07T12:39:29.210Z,100501.25
2023-04-07T12:44:32.535Z,100489.50
2023-04-07T12:49:35.483Z,100502.75
2023-04-07T12:54:40.162Z,100507.66
2023-04-07T12:59:42.915Z,100507.56
2023-04-07T13:04:46.762Z,100509.16
2023-04-07T13:09:51.176Z,100505.97
2023-04-07T13:15:00.139Z,100507.88
2023-04-07T13:20:04.051Z,100514.34
2023-04-07T13:25:08.920Z,100507.25
2023-04-07T13:30:12.810Z,100498.69
2023-04-07T13:35:17.198Z,100499.91
2023-04-07T13:40:21.399Z,100508.09
2023-04-07T13:45:24.229Z,100493.34
2023-04-07T13:50:27.306Z,100487.63
2023-04-07T13:55:31.443Z,100486.63
2023-04-07T14:00:35.787Z,100492.94
2023-04-07T14:05:38.637Z,100494.25
2023-04-07T14:10:43.351Z,100492.75
2023-04-07T14:15:46.605Z,100478.91
2023-04-07T14:20:49.403Z,100481.66
2023-04-07T14:25:53.572Z,100489.19
2023-04-07T14:30:56.455Z,100482.72
2023-04-07T14:35:59.358Z,100484.06
2023-04-07T14:46:10.025Z,100484.69
2023-04-07T14:51:13.756Z,100491.81
2023-04-07T14:56:17.908Z,100495.94
2023-04-07T15:01:20.928Z,100491.47
2023-04-07T15:06:23.787Z,100506.78
2023-04-07T15:11:28.005Z,100504.00
2023-04-07T15:16:30.859Z,100506.63
2023-04-07T15:21:33.730Z,100508.94
2023-04-07T15:26:37.854Z,100510.06
2023-04-07T15:31:40.763Z,100517.13
2023-04-07T15:36:43.594Z,100518.06
2023-04-07T15:41:47.773Z,100531.66
2023-04-07T15:46:50.575Z,100528.84
2023-04-07T15:51:53.474Z,100531.13
2023-04-07T15:56:57.620Z,100540.66
2023-04-07T16:02:00.717Z,100543.84
2023-04-07T16:07:03.588Z,100546.47
2023-04-07T16:12:07.725Z,100548.91
2023-04-07T16:17:10.574Z,100554.78
2023-04-07T16:22:13.310Z,100562.97
2023-04-07T16:27:17.521Z,100560.69
2023-04-07T16:32:20.307Z,100564.53
2023-04-07T16:37:23.053Z,100566.28
2023-04-07T16:42:28.646Z,100578.28
2023-04-07T16:47:32.281Z,100577.84
2023-04-07T16:52:35.123Z,100579.56
2023-04-07T16:57:39.252Z,100583.53
2023-04-07T17:02:42.036Z,100609.09
2023-04-07T17:07:44.962Z,100608.75
2023-04-07T17:12:53.076Z,100614.75
2023-04-07T17:17:55.853Z,100620.84
2023-04-07T17:22:58.624Z,100623.19
2023-04-07T17:28:02.770Z,100632.97
2023-04-07T17:33:08.165Z,100639.13
2023-04-07T17:38:11.414Z,100643.28
2023-04-07T17:43:16.212Z,100657.16
2023-04-07T17:48:18.970Z,100663.09
2023-04-07T17:53:21.573Z,100671.59
2023-04-07T17:58:26.111Z,100685.22
2023-04-07T18:03:29.015Z,100690.00
2023-04-07T18:08:32.000Z,100700.69
2023-04-07T18:13:36.196Z,100706.31
2023-04-07T18:18:39.030Z,100706.31
2023-04-07T18:23:41.757Z,100719.13
2023-04-07T18:28:46.387Z,100721.94
2023-04-07T18:33:49.322Z,100730.06
2023-04-07T18:38:52.359Z,100734.41
2023-04-07T18:43:56.669Z,100739.25
2023-04-07T18:48:59.353Z,100747.78
2023-04-07T18:54:01.975Z,100761.56
2023-04-07T18:59:07.240Z,100764.72
2023-04-07T19:04:10.120Z,100775.06
2023-04-07T19:09:12.992Z,100779.16
2023-04-07T19:14:17.118Z,100785.00
2023-04-07T19:19:19.883Z,100792.88
2023-04-07T19:24:22.669Z,100792.88
2023-04-07T19:29:27.041Z,100797.75
2023-04-07T19:34:29.813Z,100801.75
2023-04-07T19:39:32.399Z,100810.34
2023-04-07T19:44:37.573Z,100814.69
2023-04-07T19:49:40.795Z,100819.75
2023-04-07T19:54:43.617Z,100819.25
2023-04-07T19:59:48.542Z,100820.94
2023-04-07T20:04:51.339Z,100821.81
2023-04-07T20:09:55.075Z,100827.72
2023-04-07T20:14:59.283Z,100834.38
2023-04-07T20:20:02.023Z,100837.66
2023-04-07T20:25:05.370Z,100839.28
2023-04-07T20:30:10.432Z,100849.00
2023-04-07T20:35:13.578Z,100849.19
2023-04-07T20:40:16.985Z,100854.50
2023-04-07T20:45:23.038Z,100858.31
2023-04-07T20:50:25.824Z,100871.16
2023-04-07T20:55:28.763Z,100875.44
2023-04-07T21:00:32.962Z,100876.34
2023-04-07T21:05:35.784Z,100889.56
2023-04-07T21:10:38.569Z,100885.66
2023-04-07T21:15:43.876Z,100891.50
2023-04-07T21:20:47.253Z,100884.34
2023-04-07T21:25:50.034Z,100890.19
2023-04-07T21:30:55.705Z,100895.72
2023-04-07T21:35:58.742Z,100900.22
2023-04-07T21:41:01.534Z,100920.38
2023-04-07T21:46:05.796Z,100910.72
2023-04-07T21:51:08.978Z,100913.00
2023-04-07T21:56:13.169Z,100917.00
2023-04-07T22:01:18.530Z,100915.75
2023-04-07T22:06:21.859Z,100922.53
2023-04-07T22:11:24.614Z,100917.63
2023-04-07T22:16:28.796Z,100930.34
2023-04-07T22:21:32.293Z,100935.22
2023-04-07T22:26:35.166Z,100935.72
2023-04-07T22:31:39.442Z,100937.06
2023-04-07T22:36:42.300Z,100934.16
2023-04-07T22:41:45.061Z,100945.97
2023-04-07T22:46:49.267Z,100942.78
2023-04-07T22:51:52.181Z,100950.28
2023-04-07T22:56:54.969Z,100955.38
2023-04-07T23:01:59.156Z,100955.88
2023-04-07T23:07:02.224Z,100959.94
2023-04-07T23:12:05.360Z,100972.84
2023-04-07T23:17:09.444Z,100975.59
2023-04-07T23:22:12.444Z,100978.09
2023-04-07T23:27:15.549Z,100974.03
2023-04-07T23:32:19.722Z,100974.03
2023-04-07T23:37:22.514Z,100979.22
2023-04-07T23:42:25.422Z,100981.72
2023-04-07T23:47:29.667Z,100971.97
2023-04-07T23:52:32.455Z,100987.84
2023-04-07T23:57:35.232Z,100985.31
